createdAt,value
2019-03-01T00:00:28.469Z,312.36
2019-03-01T00:01:28.459Z,312.85
2019-03-01T00:02:28.498Z,312.87
2019-03-01T00:03:28.502Z,312.55
2019-03-01T00:04:28.430Z,312.84
2019-03-01T00:05:28.410Z,313.02
2019-03-01T00:06:28.396Z,312.36
2019-03-01T00:07:28.437Z,312.15
2019-03-01T00:08:28.374Z,313.69
2019-03-01T00:09:28.388Z,312.65
2019-03-01T00:10:28.364Z,312.94
2019-03-01T00:11:28.352Z,312.43
2019-03-01T00:12:28.342Z,312.71
2019-03-01T00:13:28.352Z,312.50
2019-03-01T00:14:28.307Z,312.88
2019-03-01T00:15:28.309Z,312.36
2019-03-01T00:16:28.287Z,312.18
2019-03-01T00:17:28.296Z,312.54
2019-03-01T00:18:28.285Z,312.64
2019-03-01T00:19:28.283Z,312.87
2019-03-01T00:20:28.260Z,312.79
2019-03-01T00:21:28.287Z,313.00
2019-03-01T00:22:28.239Z,312.86
2019-03-01T00:23:28.228Z,312.48
2019-03-01T00:24:28.237Z,312.48
2019-03-01T00:25:28.183Z,312.82
2019-03-01T00:26:28.184Z,312.87
2019-03-01T00:27:28.163Z,312.84
2019-03-01T00:28:28.168Z,313.00
2019-03-01T00:29:28.187Z,312.52
2019-03-01T00:30:28.143Z,312.55
2019-03-01T00:31:28.469Z,312.48
2019-03-01T00:32:28.125Z,312.99
2019-03-01T00:33:28.103Z,312.91
2019-03-01T00:34:28.098Z,312.57
2019-03-01T00:35:28.117Z,311.95
2019-03-01T00:36:28.085Z,312.93
2019-03-01T00:37:28.062Z,312.45
2019-03-01T00:38:28.057Z,313.17
2019-03-01T00:39:28.033Z,312.50
2019-03-01T00:40:28.048Z,311.86
2019-03-01T00:41:28.022Z,312.13
2019-03-01T00:42:28.020Z,312.41
2019-03-01T00:43:28.001Z,312.56
2019-03-01T00:44:27.981Z,312.34
2019-03-01T00:45:28.009Z,312.27
2019-03-01T00:46:27.956Z,311.93
2019-03-01T00:47:27.948Z,311.69
2019-03-01T00:48:27.937Z,311.90
2019-03-01T00:49:27.937Z,311.94
2019-03-01T00:50:27.933Z,311.61
2019-03-01T00:51:27.941Z,311.94
2019-03-01T00:52:27.891Z,312.57
2019-03-01T00:53:27.894Z,312.13
2019-03-01T00:54:27.875Z,312.11
2019-03-01T00:55:27.870Z,312.07
2019-03-01T00:56:27.863Z,312.76
2019-03-01T00:57:27.851Z,312.39
2019-03-01T00:58:27.822Z,312.62
2019-03-01T00:59:27.814Z,312.45
2019-03-01T01:00:27.803Z,312.80
2019-03-01T01:01:27.824Z,313.09
2019-03-01T01:02:27.823Z,313.39
2019-03-01T01:03:27.805Z,313.29
2019-03-01T01:04:27.767Z,312.90
2019-03-01T01:05:27.747Z,313.39
2019-03-01T01:06:27.789Z,312.80
2019-03-01T01:07:27.751Z,313.02
2019-03-01T01:08:27.724Z,313.00
2019-03-01T01:09:27.717Z,312.92
2019-03-01T01:10:27.694Z,313.11
2019-03-01T01:11:27.700Z,313.06
2019-03-01T01:12:27.702Z,313.20
2019-03-01T01:13:27.683Z,313.28
2019-03-01T01:14:27.666Z,313.76
2019-03-01T01:15:27.652Z,313.17
2019-03-01T01:16:27.663Z,313.67
2019-03-01T01:17:27.624Z,313.57
2019-03-01T01:18:27.611Z,313.53
2019-03-01T01:19:27.598Z,313.32
2019-03-01T01:20:27.590Z,313.45
2019-03-01T01:21:27.617Z,313.58
2019-03-01T01:22:27.573Z,313.92
2019-03-01T01:23:27.555Z,313.71
2019-03-01T01:24:27.552Z,313.50
2019-03-01T01:25:27.538Z,313.88
2019-03-01T01:26:27.523Z,313.99
2019-03-01T01:27:27.540Z,313.94
2019-03-01T01:28:27.504Z,313.43
2019-03-01T01:29:27.509Z,312.82
2019-03-01T01:30:27.483Z,312.91
2019-03-01T01:31:27.474Z,312.99
2019-03-01T01:32:27.487Z,312.90
2019-03-01T01:33:27.456Z,313.55
2019-03-01T01:34:27.437Z,312.90
2019-03-01T01:35:27.432Z,312.73
2019-03-01T01:36:27.434Z,312.62
2019-03-01T01:37:27.404Z,312.60
2019-03-01T01:38:27.420Z,312.36
2019-03-01T01:39:27.393Z,312.43
2019-03-01T01:40:27.378Z,313.08
2019-03-01T01:41:27.363Z,312.38
2019-03-01T01:42:27.360Z,312.12
2019-03-01T01:43:27.360Z,313.23
2019-03-01T01:44:27.322Z,313.16
2019-03-01T01:45:27.323Z,312.57
2019-03-01T01:46:27.306Z,312.62
2019-03-01T01:47:27.316Z,312.81
2019-03-01T01:48:27.291Z,312.57
2019-03-01T01:49:27.279Z,312.82
2019-03-01T01:50:27.288Z,312.47
2019-03-01T01:51:27.249Z,312.61
2019-03-01T01:52:27.265Z,312.52
2019-03-01T01:53:27.252Z,312.83
2019-03-01T01:54:27.220Z,312.13
2019-03-01T01:55:27.201Z,312.05
2019-03-01T01:56:27.189Z,311.97
2019-03-01T01:57:27.220Z,311.47
2019-03-01T01:58:27.177Z,311.53
2019-03-01T01:59:27.178Z,311.77
2019-03-01T02:00:27.159Z,311.90
2019-03-01T02:01:27.148Z,312.59
2019-03-01T02:02:27.145Z,311.80
2019-03-01T02:03:27.115Z,312.18
2019-03-01T02:04:27.108Z,312.12
2019-03-01T02:05:27.112Z,312.08
2019-03-01T02:06:27.099Z,312.31
2019-03-01T02:07:27.109Z,313.77
2019-03-01T02:08:27.076Z,313.05
2019-03-01T02:09:27.054Z,313.22
2019-03-01T02:10:27.044Z,313.57
2019-03-01T02:11:27.034Z,312.91
2019-03-01T02:12:27.062Z,313.04
2019-03-01T02:13:26.997Z,312.54
2019-03-01T02:14:26.992Z,312.13
2019-03-01T02:15:26.979Z,312.70
2019-03-01T02:16:26.982Z,312.83
2019-03-01T02:17:26.979Z,312.33
2019-03-01T02:18:26.974Z,312.24
2019-03-01T02:19:26.948Z,312.14
2019-03-01T02:20:26.935Z,312.59
2019-03-01T02:21:26.915Z,312.79
2019-03-01T02:22:26.923Z,313.21
2019-03-01T02:23:26.897Z,313.03
2019-03-01T02:24:26.884Z,313.64
2019-03-01T02:25:26.883Z,312.36
2019-03-01T02:26:26.873Z,313.15
2019-03-01T02:27:26.893Z,312.82
2019-03-01T02:28:26.850Z,312.48
2019-03-01T02:29:26.837Z,312.25
2019-03-01T02:30:26.826Z,312.08
2019-03-01T02:31:26.825Z,312.35
2019-03-01T02:32:26.838Z,312.97
2019-03-01T02:33:26.804Z,312.88
2019-03-01T02:34:26.790Z,312.58
2019-03-01T02:35:26.775Z,312.85
2019-03-01T02:36:26.751Z,312.52
2019-03-01T02:37:26.761Z,312.23
2019-03-01T02:38:26.776Z,312.21
2019-03-01T02:39:26.730Z,311.84
2019-03-01T02:40:26.745Z,312.43
2019-03-01T02:41:26.713Z,312.28
2019-03-01T02:42:26.674Z,312.47
2019-03-01T02:43:26.674Z,312.43
2019-03-01T02:44:26.676Z,312.40
2019-03-01T02:45:26.700Z,312.41
2019-03-01T02:46:26.644Z,312.38
2019-03-01T02:47:26.630Z,312.24
2019-03-01T02:48:26.640Z,311.95
2019-03-01T02:49:26.640Z,312.67
2019-03-01T02:50:26.630Z,311.96
2019-03-01T02:51:26.595Z,312.57
2019-03-01T02:52:26.585Z,313.20
2019-03-01T02:53:26.626Z,313.41
2019-03-01T02:54:26.557Z,312.52
2019-03-01T02:55:26.563Z,312.75
2019-03-01T02:56:26.533Z,313.06
2019-03-01T02:57:26.529Z,313.19
2019-03-01T02:58:26.515Z,313.64
2019-03-01T02:59:26.494Z,313.56
2019-03-01T03:00:26.526Z,313.13
2019-03-01T03:01:26.490Z,313.08
2019-03-01T03:02:26.475Z,313.37
2019-03-01T03:03:26.473Z,313.38
2019-03-01T03:04:26.462Z,313.13
2019-03-01T03:05:26.446Z,313.42
2019-03-01T03:06:26.442Z,313.00
2019-03-01T03:07:26.424Z,312.67
2019-03-01T03:08:26.410Z,313.02
2019-03-01T03:09:26.393Z,312.77
2019-03-01T03:10:26.398Z,313.07
2019-03-01T03:11:26.404Z,312.97
2019-03-01T03:12:26.369Z,312.72
2019-03-01T03:13:26.353Z,312.91
2019-03-01T03:14:26.347Z,312.70
2019-03-01T03:15:26.326Z,312.29
2019-03-01T03:16:26.346Z,312.61
2019-03-01T03:17:26.338Z,312.80
2019-03-01T03:18:26.301Z,312.68
2019-03-01T03:19:26.302Z,312.82
2019-03-01T03:20:26.290Z,312.78
2019-03-01T03:21:26.263Z,312.50
2019-03-01T03:22:26.243Z,313.03
2019-03-01T03:23:26.273Z,312.96
2019-03-01T03:24:26.237Z,312.50
2019-03-01T03:25:26.253Z,313.16
2019-03-01T03:26:26.213Z,313.19
2019-03-01T03:27:26.208Z,312.41
2019-03-01T03:28:26.194Z,311.81
2019-03-01T03:29:26.206Z,312.48
2019-03-01T03:30:26.177Z,312.61
2019-03-01T03:31:26.170Z,312.91
2019-03-01T03:32:26.170Z,313.18
2019-03-01T03:33:26.133Z,312.81
2019-03-01T03:34:26.174Z,312.40
2019-03-01T03:35:26.101Z,312.24
2019-03-01T03:36:26.087Z,312.45
2019-03-01T03:37:26.097Z,312.58
2019-03-01T03:38:26.086Z,312.21
2019-03-01T03:39:26.078Z,312.01
2019-03-01T03:40:26.085Z,312.26
2019-03-01T03:41:26.038Z,312.71
2019-03-01T03:42:26.023Z,312.19
2019-03-01T03:43:26.019Z,312.29
2019-03-01T03:44:26.039Z,312.80
2019-03-01T03:45:26.017Z,311.96
2019-03-01T03:46:26.021Z,311.81
2019-03-01T03:47:25.971Z,312.10
2019-03-01T03:48:25.974Z,311.39
2019-03-01T03:49:25.962Z,312.37
2019-03-01T03:50:25.950Z,312.65
2019-03-01T03:51:25.946Z,312.72
2019-03-01T03:52:25.963Z,312.85
2019-03-01T03:53:25.911Z,312.94
2019-03-01T03:54:25.898Z,312.92
2019-03-01T03:55:25.883Z,312.68
2019-03-01T03:56:25.885Z,312.53
2019-03-01T03:57:25.882Z,312.21
2019-03-01T03:58:25.870Z,312.29
2019-03-01T03:59:25.845Z,313.52
2019-03-01T04:00:25.870Z,312.87
2019-03-01T04:01:25.840Z,312.94
2019-03-01T04:02:25.832Z,312.54
2019-03-01T04:03:25.802Z,312.75
2019-03-01T04:04:25.794Z,312.67
2019-03-01T04:05:25.828Z,312.56
2019-03-01T04:06:25.778Z,312.30
2019-03-01T04:07:25.755Z,312.00
2019-03-01T04:08:25.762Z,311.91
2019-03-01T04:09:25.747Z,312.07
2019-03-01T04:10:25.725Z,311.87
2019-03-01T04:11:25.736Z,312.03
2019-03-01T04:12:25.707Z,312.44
2019-03-01T04:13:25.693Z,312.37
2019-03-01T04:14:25.688Z,311.78
2019-03-01T04:15:25.666Z,312.58
2019-03-01T04:16:25.672Z,312.04
2019-03-01T04:17:25.680Z,311.81
2019-03-01T04:18:25.646Z,311.58
2019-03-01T04:19:25.627Z,312.03
2019-03-01T04:20:25.613Z,311.72
2019-03-01T04:21:25.630Z,312.57
2019-03-01T04:22:25.599Z,312.32
2019-03-01T04:23:25.587Z,311.99
2019-03-01T04:24:25.575Z,312.41
2019-03-01T04:25:25.555Z,312.41
2019-03-01T04:26:25.578Z,312.82
2019-03-01T04:27:25.596Z,312.74
2019-03-01T04:28:25.522Z,312.21
2019-03-01T04:29:25.539Z,312.65
2019-03-01T04:30:25.501Z,312.30
2019-03-01T04:31:25.519Z,313.41
2019-03-01T04:32:25.517Z,313.06
2019-03-01T04:33:25.479Z,312.67
2019-03-01T04:34:25.459Z,312.06
2019-03-01T04:35:25.465Z,312.34
2019-03-01T04:36:25.443Z,312.54
2019-03-01T04:37:25.429Z,312.81
2019-03-01T04:38:25.453Z,313.32
2019-03-01T04:39:25.417Z,313.17
2019-03-01T04:40:25.387Z,313.55
2019-03-01T04:41:25.399Z,313.16
2019-03-01T04:42:25.392Z,313.17
2019-03-01T04:43:25.365Z,313.69
2019-03-01T04:44:25.427Z,313.35
2019-03-01T04:45:25.337Z,313.65
2019-03-01T04:46:25.328Z,313.74
2019-03-01T04:47:25.307Z,313.78
2019-03-01T04:48:25.314Z,314.20
2019-03-01T04:49:25.335Z,314.24
2019-03-01T04:50:25.297Z,314.01
2019-03-01T04:51:25.295Z,314.12
2019-03-01T04:52:25.268Z,314.10
2019-03-01T04:53:25.250Z,313.25
2019-03-01T04:54:25.309Z,313.84
2019-03-01T04:55:25.268Z,313.54
2019-03-01T04:56:25.218Z,314.11
2019-03-01T04:57:25.195Z,313.99
2019-03-01T04:58:25.192Z,314.14
2019-03-01T04:59:25.209Z,314.64
2019-03-01T05:00:25.170Z,314.28
2019-03-01T05:01:25.173Z,313.47
2019-03-01T05:02:25.156Z,314.26
2019-03-01T05:03:25.153Z,314.33
2019-03-01T05:04:25.156Z,315.11
2019-03-01T05:05:25.134Z,314.14
2019-03-01T05:06:25.116Z,314.68
2019-03-01T05:07:25.106Z,314.54
2019-03-01T05:08:25.105Z,314.48
2019-03-01T05:09:25.099Z,314.21
2019-03-01T05:10:25.079Z,314.80
2019-03-01T05:11:25.061Z,314.29
2019-03-01T05:12:25.038Z,314.05
2019-03-01T05:13:25.038Z,314.38
2019-03-01T05:14:25.077Z,314.23
2019-03-01T05:15:25.020Z,314.97
2019-03-01T05:16:25.023Z,314.78
2019-03-01T05:17:24.995Z,314.28
2019-03-01T05:18:24.999Z,314.80
2019-03-01T05:19:24.961Z,314.41
2019-03-01T05:20:24.968Z,315.46
2019-03-01T05:21:24.951Z,314.89
2019-03-01T05:22:24.959Z,314.75
2019-03-01T05:23:24.922Z,315.27
2019-03-01T05:24:24.914Z,314.82
2019-03-01T05:25:24.912Z,314.80
2019-03-01T05:26:24.893Z,315.18
2019-03-01T05:27:24.909Z,314.95
2019-03-01T05:28:24.878Z,315.67
2019-03-01T05:29:24.864Z,315.50
2019-03-01T05:30:24.861Z,315.33
2019-03-01T05:31:24.843Z,315.03
2019-03-01T05:32:24.860Z,314.95
2019-03-01T05:33:24.864Z,314.88
2019-03-01T05:34:24.817Z,315.08
2019-03-01T05:35:24.794Z,315.01
2019-03-01T05:36:24.792Z,314.63
2019-03-01T05:37:24.773Z,314.98
2019-03-01T05:38:24.779Z,315.65
2019-03-01T05:39:24.766Z,314.93
2019-03-01T05:40:24.745Z,315.35
2019-03-01T05:41:24.750Z,316.32
2019-03-01T05:42:24.715Z,315.74
2019-03-01T05:43:24.708Z,316.00
2019-03-01T05:44:24.706Z,316.31
2019-03-01T05:45:24.718Z,315.70
2019-03-01T05:46:24.692Z,315.46
2019-03-01T05:47:24.698Z,315.14
2019-03-01T05:48:24.667Z,315.78
2019-03-01T05:49:24.644Z,315.52
2019-03-01T05:50:24.670Z,315.42
2019-03-01T05:51:24.620Z,314.51
2019-03-01T05:52:24.621Z,315.11
2019-03-01T05:53:24.623Z,315.36
2019-03-01T05:54:24.598Z,315.22
2019-03-01T05:55:24.580Z,314.97
2019-03-01T05:56:24.594Z,315.19
2019-03-01T05:57:24.571Z,315.25
2019-03-01T05:58:24.587Z,315.17
2019-03-01T05:59:24.535Z,315.60
2019-03-01T06:00:24.529Z,314.73
2019-03-01T06:01:24.509Z,315.12
2019-03-01T06:02:24.501Z,314.37
2019-03-01T06:03:24.491Z,315.61
2019-03-01T06:04:24.493Z,315.02
2019-03-01T06:05:25.072Z,315.56
2019-03-01T06:06:24.468Z,315.21
2019-03-01T06:07:24.461Z,315.14
2019-03-01T06:08:24.445Z,315.45
2019-03-01T06:09:24.463Z,315.18
2019-03-01T06:10:24.431Z,316.83
2019-03-01T06:11:24.411Z,315.99
2019-03-01T06:12:24.399Z,316.44
2019-03-01T06:13:24.382Z,315.82
2019-03-01T06:14:24.391Z,316.35
2019-03-01T06:15:24.362Z,316.37
2019-03-01T06:16:24.385Z,315.95
2019-03-01T06:17:24.342Z,315.87
2019-03-01T06:18:24.331Z,314.40
2019-03-01T06:19:24.352Z,314.97
2019-03-01T06:20:24.343Z,315.02
2019-03-01T06:21:24.301Z,315.16
2019-03-01T06:22:24.278Z,314.87
2019-03-01T06:23:24.271Z,315.29
2019-03-01T06:24:24.286Z,314.97
2019-03-01T06:25:24.279Z,315.19
2019-03-01T06:26:24.249Z,315.93
2019-03-01T06:27:24.235Z,316.05
2019-03-01T06:28:24.212Z,316.24
2019-03-01T06:29:24.217Z,317.01
2019-03-01T06:30:24.234Z,316.01
2019-03-01T06:31:24.202Z,316.05
2019-03-01T06:32:24.176Z,316.19
2019-03-01T06:33:24.174Z,316.15
2019-03-01T06:34:24.148Z,316.64
2019-03-01T06:35:24.137Z,316.46
2019-03-01T06:36:24.152Z,317.25
2019-03-01T06:37:24.126Z,316.16
2019-03-01T06:38:24.123Z,316.57
2019-03-01T06:39:24.115Z,315.01
2019-03-01T06:40:24.123Z,315.84
2019-03-01T06:41:24.098Z,315.64
2019-03-01T06:42:24.061Z,315.92
2019-03-01T06:43:24.058Z,316.64
2019-03-01T06:44:24.047Z,316.58
2019-03-01T06:45:24.056Z,316.52
2019-03-01T06:46:24.021Z,315.83
2019-03-01T06:47:24.043Z,315.59
2019-03-01T06:48:24.001Z,315.51
2019-03-01T06:49:23.990Z,315.28
2019-03-01T06:50:23.988Z,315.32
2019-03-01T06:51:28.861Z,315.72
2019-03-01T06:52:24.997Z,315.93
2019-03-01T06:53:23.972Z,315.63
2019-03-01T06:54:23.933Z,315.98
2019-03-01T06:55:23.921Z,316.40
2019-03-01T06:56:23.916Z,317.19
2019-03-01T06:57:23.902Z,316.50
2019-03-01T06:58:23.918Z,316.45
2019-03-01T06:59:23.876Z,316.08
2019-03-01T07:00:23.898Z,316.13
2019-03-01T07:01:23.885Z,316.60
2019-03-01T07:02:23.868Z,316.00
2019-03-01T07:03:23.846Z,315.40
2019-03-01T07:04:23.834Z,315.48
2019-03-01T07:05:23.810Z,316.46
2019-03-01T07:06:23.833Z,315.22
2019-03-01T07:07:23.793Z,315.65
2019-03-01T07:08:23.770Z,316.31
2019-03-01T07:09:23.770Z,316.18
2019-03-01T07:10:23.761Z,316.16
2019-03-01T07:11:23.756Z,315.52
2019-03-01T07:12:23.763Z,316.20
2019-03-01T07:13:23.737Z,316.05
2019-03-01T07:14:23.703Z,315.45
2019-03-01T07:15:23.701Z,316.04
2019-03-01T07:16:23.697Z,315.73
2019-03-01T07:17:23.716Z,315.36
2019-03-01T07:18:23.665Z,315.94
2019-03-01T07:19:23.678Z,315.41
2019-03-01T07:20:23.649Z,315.20
2019-03-01T07:21:23.645Z,315.75
2019-03-01T07:22:23.656Z,315.35
2019-03-01T07:23:23.632Z,315.47
2019-03-01T07:24:23.631Z,315.79
2019-03-01T07:25:23.608Z,316.32
2019-03-01T07:26:23.575Z,316.09
2019-03-01T07:27:23.592Z,316.00
2019-03-01T07:28:23.583Z,315.65
2019-03-01T07:29:23.570Z,316.65
2019-03-01T07:30:23.566Z,315.72
2019-03-01T07:31:23.538Z,315.75
2019-03-01T07:32:23.515Z,315.88
2019-03-01T07:33:23.528Z,315.50
2019-03-01T07:34:23.502Z,315.53
2019-03-01T07:35:23.505Z,315.89
2019-03-01T07:36:23.475Z,315.60
2019-03-01T07:37:23.485Z,314.97
2019-03-01T07:38:23.448Z,315.85
2019-03-01T07:39:23.433Z,316.49
2019-03-01T07:40:23.432Z,314.97
2019-03-01T07:41:23.417Z,315.75
2019-03-01T07:42:23.451Z,316.36
2019-03-01T07:43:23.395Z,315.41
2019-03-01T07:44:23.390Z,316.56
2019-03-01T07:45:23.376Z,316.69
2019-03-01T07:46:23.399Z,315.90
2019-03-01T07:47:23.363Z,315.41
2019-03-01T07:48:23.357Z,315.61
2019-03-01T07:49:23.324Z,315.71
2019-03-01T07:50:23.313Z,315.94
2019-03-01T07:51:23.305Z,316.65
2019-03-01T07:52:23.341Z,315.55
2019-03-01T07:53:23.295Z,316.26
2019-03-01T07:54:23.294Z,315.95
2019-03-01T07:55:24.893Z,315.81
2019-03-01T07:56:23.265Z,316.15
2019-03-01T07:57:23.237Z,315.85
2019-03-01T07:58:25.496Z,315.38
2019-03-01T07:59:24.083Z,315.66
2019-03-01T08:00:23.209Z,316.24
2019-03-01T08:01:25.706Z,315.89
2019-03-01T08:02:24.215Z,316.45
2019-03-01T08:03:23.175Z,316.21
2019-03-01T08:04:23.672Z,315.73
2019-03-01T08:05:23.162Z,316.27
2019-03-01T08:06:23.148Z,316.25
2019-03-01T08:07:23.550Z,315.73
2019-03-01T08:08:23.126Z,315.62
2019-03-01T08:09:23.140Z,315.52
2019-03-01T08:10:23.462Z,316.34
2019-03-01T08:11:23.099Z,316.63
2019-03-01T08:12:23.071Z,315.82
2019-03-01T08:13:23.103Z,315.77
2019-03-01T08:14:24.649Z,316.44
2019-03-01T08:15:23.057Z,315.51
2019-03-01T08:16:25.120Z,315.96
2019-03-01T08:17:23.040Z,316.03
2019-03-01T08:18:23.077Z,316.16
2019-03-01T08:19:23.645Z,315.61
2019-03-01T08:20:22.999Z,315.79
2019-03-01T08:21:22.999Z,315.70
2019-03-01T08:22:24.850Z,315.40
2019-03-01T08:23:22.974Z,315.46
2019-03-01T08:24:22.983Z,315.28
2019-03-01T08:25:24.539Z,315.52
2019-03-01T08:26:22.944Z,315.47
2019-03-01T08:27:25.150Z,316.05
2019-03-01T08:28:23.117Z,315.78
2019-03-01T08:29:22.916Z,315.38
2019-03-01T08:30:22.881Z,315.81
2019-03-01T08:31:22.875Z,316.34
2019-03-01T08:32:22.869Z,316.10
2019-03-01T08:33:22.868Z,316.17
2019-03-01T08:34:22.852Z,316.28
2019-03-01T08:35:25.274Z,315.27
2019-03-01T08:36:23.819Z,315.37
2019-03-01T08:37:22.816Z,315.77
2019-03-01T08:38:25.411Z,315.27
2019-03-01T08:39:23.799Z,315.49
2019-03-01T08:40:22.794Z,315.12
2019-03-01T08:41:25.022Z,315.13
2019-03-01T08:42:22.754Z,315.42
2019-03-01T08:43:22.731Z,315.31
2019-03-01T08:44:24.121Z,315.42
2019-03-01T08:45:22.751Z,315.21
2019-03-01T08:46:22.721Z,315.88
2019-03-01T08:47:24.505Z,316.85
2019-03-01T08:48:22.689Z,315.58
2019-03-01T08:49:22.667Z,315.91
2019-03-01T08:50:22.687Z,315.54
2019-03-01T08:51:26.742Z,315.79
2019-03-01T08:52:22.638Z,315.77
2019-03-01T08:53:22.616Z,315.93
2019-03-01T08:54:22.985Z,315.32
2019-03-01T08:55:22.605Z,315.33
2019-03-01T08:56:26.237Z,316.00
2019-03-01T08:57:25.947Z,315.54
2019-03-01T08:58:22.599Z,315.02
2019-03-01T08:59:22.567Z,315.55
2019-03-01T09:00:23.080Z,315.50
2019-03-01T09:01:22.567Z,315.77
2019-03-01T09:02:22.552Z,315.60
2019-03-01T09:03:23.174Z,315.47
2019-03-01T09:04:22.504Z,315.68
2019-03-01T09:05:22.497Z,315.41
2019-03-01T09:06:22.506Z,315.22
2019-03-01T09:07:22.505Z,315.59
2019-03-01T09:08:22.869Z,315.33
2019-03-01T09:09:22.467Z,315.49
2019-03-01T09:10:22.463Z,314.51
2019-03-01T09:11:22.440Z,315.17
2019-03-01T09:12:22.432Z,315.44
2019-03-01T09:13:22.439Z,315.71
2019-03-01T09:14:22.696Z,316.56
2019-03-01T09:15:22.396Z,315.48
2019-03-01T09:16:22.381Z,315.81
2019-03-01T09:17:22.383Z,315.28
2019-03-01T09:18:22.393Z,314.95
2019-03-01T09:19:25.164Z,315.14
2019-03-01T09:20:22.378Z,314.38
2019-03-01T09:21:22.339Z,314.63
2019-03-01T09:22:24.262Z,315.16
2019-03-01T09:23:27.129Z,315.06
2019-03-01T09:24:22.294Z,314.28
2019-03-01T09:25:22.269Z,315.19
2019-03-01T09:26:22.275Z,315.02
2019-03-01T09:27:22.815Z,314.00
2019-03-01T09:28:22.285Z,314.82
2019-03-01T09:29:22.241Z,313.65
2019-03-01T09:30:22.237Z,314.01
2019-03-01T09:31:22.237Z,314.42
2019-03-01T09:32:22.216Z,314.81
2019-03-01T09:33:22.942Z,314.13
2019-03-01T09:34:22.173Z,314.56
2019-03-01T09:35:22.174Z,314.58
2019-03-01T09:36:22.163Z,314.59
2019-03-01T09:37:22.155Z,313.85
2019-03-01T09:38:22.246Z,314.32
2019-03-01T09:39:22.126Z,314.02
2019-03-01T09:40:22.111Z,314.22
2019-03-01T09:41:22.118Z,314.32
2019-03-01T09:42:22.115Z,313.99
2019-03-01T09:43:24.695Z,314.96
2019-03-01T09:44:23.114Z,314.69
2019-03-01T09:45:22.072Z,314.72
2019-03-01T09:46:24.759Z,314.89
2019-03-01T09:47:23.032Z,315.08
2019-03-01T09:48:22.036Z,314.33
2019-03-01T09:49:24.419Z,314.79
2019-03-01T09:50:22.017Z,314.69
2019-03-01T09:51:22.005Z,314.28
2019-03-01T09:52:23.521Z,314.60
2019-03-01T09:53:21.979Z,314.42
2019-03-01T09:54:21.991Z,314.35
2019-03-01T09:55:21.966Z,313.84
2019-03-01T09:56:24.157Z,314.29
2019-03-01T09:57:21.923Z,313.90
2019-03-01T09:58:21.922Z,314.01
2019-03-01T09:59:21.922Z,314.47
2019-03-01T10:00:21.896Z,314.65
2019-03-01T10:01:21.897Z,314.68
2019-03-01T10:02:21.908Z,314.39
2019-03-01T10:03:21.875Z,314.17
2019-03-01T10:04:21.878Z,314.20
2019-03-01T10:05:21.856Z,314.42
2019-03-01T10:06:21.832Z,314.55
2019-03-01T10:07:21.830Z,314.22
2019-03-01T10:08:21.807Z,314.10
2019-03-01T10:09:21.858Z,314.26
2019-03-01T10:10:21.794Z,313.89
2019-03-01T10:11:21.771Z,314.26
2019-03-01T10:12:21.768Z,314.15
2019-03-01T10:13:21.766Z,314.34
2019-03-01T10:14:21.778Z,314.09
2019-03-01T10:15:21.733Z,313.83
2019-03-01T10:16:21.733Z,313.66
2019-03-01T10:17:21.712Z,314.25
2019-03-01T10:18:21.710Z,314.44
2019-03-01T10:19:21.692Z,314.27
2019-03-01T10:20:21.709Z,314.90
2019-03-01T10:21:21.675Z,314.92
2019-03-01T10:22:21.698Z,314.44
2019-03-01T10:23:21.663Z,314.24
2019-03-01T10:24:21.647Z,314.56
2019-03-01T10:25:21.650Z,314.13
2019-03-01T10:26:21.616Z,315.14
2019-03-01T10:27:21.639Z,314.70
2019-03-01T10:28:21.597Z,314.49
2019-03-01T10:29:21.583Z,314.72
2019-03-01T10:30:21.593Z,314.43
2019-03-01T10:31:21.584Z,314.47
2019-03-01T10:32:21.538Z,314.05
2019-03-01T10:33:21.531Z,314.20
2019-03-01T10:34:21.532Z,315.26
2019-03-01T10:35:21.520Z,314.58
2019-03-01T10:36:21.544Z,314.12
2019-03-01T10:37:21.518Z,314.33
2019-03-01T10:38:21.475Z,313.59
2019-03-01T10:39:21.467Z,313.52
2019-03-01T10:40:21.449Z,313.64
2019-03-01T10:41:21.459Z,314.11
2019-03-01T10:42:21.494Z,313.69
2019-03-01T10:43:23.359Z,315.17
2019-03-01T10:44:21.412Z,314.59
2019-03-01T10:45:21.413Z,314.32
2019-03-01T10:46:21.400Z,314.60
2019-03-01T10:47:21.393Z,314.45
2019-03-01T10:48:21.408Z,314.39
2019-03-01T10:49:21.360Z,314.69
2019-03-01T10:50:21.338Z,315.52
2019-03-01T10:51:21.339Z,315.13
2019-03-01T10:52:21.332Z,314.46
2019-03-01T10:53:21.327Z,314.54
2019-03-01T10:54:21.350Z,314.99
2019-03-01T10:55:21.302Z,314.52
2019-03-01T10:56:21.289Z,314.48
2019-03-01T10:57:21.279Z,316.73
2019-03-01T10:58:21.254Z,315.34
2019-03-01T10:59:21.258Z,314.43
2019-03-01T11:00:21.280Z,314.14
2019-03-01T11:01:21.221Z,314.24
2019-03-01T11:02:21.211Z,313.94
2019-03-01T11:03:21.201Z,313.62
2019-03-01T11:04:21.203Z,314.06
2019-03-01T11:05:21.190Z,314.43
2019-03-01T11:06:21.203Z,314.25
2019-03-01T11:07:21.173Z,313.98
2019-03-01T11:08:21.155Z,313.93
2019-03-01T11:09:21.141Z,314.29
2019-03-01T11:10:21.131Z,314.58
2019-03-01T11:11:21.137Z,313.48
2019-03-01T11:12:21.090Z,313.60
2019-03-01T11:13:21.103Z,313.60
2019-03-01T11:14:21.127Z,314.08
2019-03-01T11:15:21.087Z,314.34
2019-03-01T11:16:21.096Z,314.01
2019-03-01T11:17:21.065Z,313.84
2019-03-01T11:18:21.044Z,314.46
2019-03-01T11:19:21.038Z,314.09
2019-03-01T11:20:21.027Z,314.45
2019-03-01T11:21:20.999Z,314.63
2019-03-01T11:22:21.023Z,313.99
2019-03-01T11:23:20.986Z,313.98
2019-03-01T11:24:20.990Z,313.74
2019-03-01T11:25:20.974Z,314.52
2019-03-01T11:26:20.988Z,315.34
2019-03-01T11:27:20.944Z,314.81
2019-03-01T11:28:20.976Z,314.46
2019-03-01T11:29:20.917Z,313.99
2019-03-01T11:30:20.957Z,313.83
2019-03-01T11:31:20.899Z,314.30
2019-03-01T11:32:20.894Z,314.44
2019-03-01T11:33:20.869Z,314.40
2019-03-01T11:34:20.900Z,313.89
2019-03-01T11:35:20.847Z,313.83
2019-03-01T11:36:20.841Z,313.76
2019-03-01T11:37:20.844Z,313.49
2019-03-01T11:38:20.845Z,313.34
2019-03-01T11:39:20.835Z,313.02
2019-03-01T11:40:20.853Z,313.54
2019-03-01T11:41:20.794Z,313.23
2019-03-01T11:42:20.806Z,313.59
2019-03-01T11:43:20.761Z,314.00
2019-03-01T11:44:20.770Z,313.19
2019-03-01T11:45:20.751Z,313.54
2019-03-01T11:46:20.760Z,313.26
2019-03-01T11:47:20.727Z,313.73
2019-03-01T11:48:20.716Z,313.42
2019-03-01T11:49:20.703Z,313.68
2019-03-01T11:50:20.689Z,313.59
2019-03-01T11:51:20.688Z,313.83
2019-03-01T11:52:20.697Z,312.93
2019-03-01T11:53:20.674Z,313.71
2019-03-01T11:54:20.647Z,313.59
2019-03-01T11:55:20.644Z,314.17
2019-03-01T11:56:20.626Z,313.98
2019-03-01T11:57:20.601Z,313.52
2019-03-01T11:58:20.642Z,313.97
2019-03-01T11:59:20.585Z,313.52
2019-03-01T12:00:20.579Z,313.88
2019-03-01T12:01:20.580Z,312.89
2019-03-01T12:02:20.564Z,313.60
2019-03-01T12:03:20.581Z,313.78
2019-03-01T12:04:20.531Z,313.54
2019-03-01T12:05:20.529Z,313.83
2019-03-01T12:06:20.522Z,314.28
2019-03-01T12:07:20.513Z,314.30
2019-03-01T12:08:20.505Z,314.96
2019-03-01T12:09:20.508Z,314.07
2019-03-01T12:10:20.469Z,313.14
2019-03-01T12:11:20.464Z,312.81
2019-03-01T12:12:20.458Z,312.56
2019-03-01T12:13:20.458Z,313.05
2019-03-01T12:14:22.201Z,312.98
2019-03-01T12:15:20.444Z,312.98
2019-03-01T12:16:20.420Z,313.32
2019-03-01T12:17:20.406Z,313.38
2019-03-01T12:18:20.381Z,313.86
2019-03-01T12:19:21.231Z,313.85
2019-03-01T12:20:20.386Z,313.95
2019-03-01T12:21:20.348Z,313.80
2019-03-01T12:22:20.332Z,313.27
2019-03-01T12:23:20.330Z,313.14
2019-03-01T12:24:20.308Z,313.20
2019-03-01T12:25:20.344Z,313.10
2019-03-01T12:26:20.303Z,313.35
2019-03-01T12:27:20.315Z,313.51
2019-03-01T12:28:20.273Z,313.26